sensor_id;sensor_type;location;lat;lon;timestamp;pressure;altitude;pressure_sealevel;temperature;humidity
76132;BME280;64877;50.994;13.650;2022-12-20T00:01:20;100239.44;;;0.50;84.33
76132;BME280;64877;50.994;13.650;2022-12-20T00:03:48;100235.78;;;0.53;85.05
76132;BME280;64877;50.994;13.650;2022-12-20T00:06:14;100232.91;;;0.62;84.30
76132;BME280;64877;50.994;13.650;2022-12-20T00:08:40;100222.94;;;0.69;84.14
76132;BME280;64877;50.994;13.650;2022-12-20T00:11:06;100211.94;;;0.83;83.71
76132;BME280;64877;50.994;13.650;2022-12-20T00:13:32;100205.44;;;0.93;83.10
76132;BME280;64877;50.994;13.650;2022-12-20T00:16:11;100188.28;;;1.03;83.06
76132;BME280;64877;50.994;13.650;2022-12-20T00:18:39;100181.53;;;1.21;81.77
76132;BME280;64877;50.994;13.650;2022-12-20T00:21:07;100168.97;;;1.26;81.69
76132;BME280;64877;50.994;13.650;2022-12-20T00:23:33;100160.34;;;1.46;81.25
76132;BME280;64877;50.994;13.650;2022-12-20T00:26:02;100154.03;;;1.50;81.84
76132;BME280;64877;50.994;13.650;2022-12-20T00:28:28;100145.63;;;1.62;80.90
76132;BME280;64877;50.994;13.650;2022-12-20T00:30:54;100136.09;;;1.55;81.07
76132;BME280;64877;50.994;13.650;2022-12-20T00:33:20;100135.19;;;1.56;81.60
76132;BME280;64877;50.994;13.650;2022-12-20T00:35:45;100157.25;;;1.60;81.25
76132;BME280;64877;50.994;13.650;2022-12-20T00:38:10;100157.09;;;1.64;81.81
76132;BME280;64877;50.994;13.650;2022-12-20T00:40:36;100158.72;;;1.42;81.55
76132;BME280;64877;50.994;13.650;2022-12-20T00:43:01;100165.66;;;1.18;81.00
76132;BME280;64877;50.994;13.650;2022-12-20T00:45:27;100166.19;;;1.29;81.55
76132;BME280;64877;50.994;13.650;2022-12-20T00:47:52;100171.69;;;1.24;81.61
76132;BME280;64877;50.994;13.650;2022-12-20T00:50:17;100179.03;;;1.16;81.46
76132;BME280;64877;50.994;13.650;2022-12-20T00:52:43;100182.88;;;1.06;81.96
76132;BME280;64877;50.994;13.650;2022-12-20T00:55:08;100172.53;;;0.97;82.15
76132;BME280;64877;50.994;13.650;2022-12-20T00:57:34;100173.78;;;0.85;82.59
76132;BME280;64877;50.994;13.650;2022-12-20T00:59:59;100175.50;;;0.86;82.31
76132;BME280;64877;50.994;13.650;2022-12-20T01:02:24;100168.59;;;0.81;82.52
76132;BME280;64877;50.994;13.650;2022-12-20T01:04:50;100172.25;;;0.76;83.12
76132;BME280;64877;50.994;13.650;2022-12-20T01:07:15;100165.00;;;0.82;82.70
76132;BME280;64877;50.994;13.650;2022-12-20T01:09:40;100173.03;;;0.80;83.07
76132;BME280;64877;50.994;13.650;2022-12-20T01:12:06;100176.56;;;0.81;82.78
76132;BME280;64877;50.994;13.650;2022-12-20T01:14:32;100173.06;;;0.78;82.43
76132;BME280;64877;50.994;13.650;2022-12-20T01:16:58;100169.41;;;0.83;81.97
76132;BME280;64877;50.994;13.650;2022-12-20T01:19:23;100179.16;;;0.82;81.97
76132;BME280;64877;50.994;13.650;2022-12-20T01:21:49;100165.28;;;0.72;83.05
76132;BME280;64877;50.994;13.650;2022-12-20T01:24:17;100152.06;;;0.69;83.31
76132;BME280;64877;50.994;13.650;2022-12-20T01:26:43;100159.16;;;0.70;83.52
76132;BME280;64877;50.994;13.650;2022-12-20T01:29:08;100159.22;;;0.67;83.35
76132;BME280;64877;50.994;13.650;2022-12-20T01:31:33;100169.53;;;0.78;83.35
76132;BME280;64877;50.994;13.650;2022-12-20T01:33:59;100176.56;;;0.81;83.14
76132;BME280;64877;50.994;13.650;2022-12-20T01:36:27;100172.25;;;0.76;82.51
76132;BME280;64877;50.994;13.650;2022-12-20T01:39:14;100174.91;;;0.76;82.94
76132;BME280;64877;50.994;13.650;2022-12-20T01:41:40;100174.91;;;0.76;83.26
76132;BME280;64877;50.994;13.650;2022-12-20T01:46:48;100165.13;;;0.77;83.03
76132;BME280;64877;50.994;13.650;2022-12-20T01:49:21;100164.31;;;0.75;83.22
76132;BME280;64877;50.994;13.650;2022-12-20T01:51:55;100165.31;;;0.71;83.80
76132;BME280;64877;50.994;13.650;2022-12-20T01:54:36;100161.44;;;0.83;83.38
76132;BME280;64877;50.994;13.650;2022-12-20T01:57:08;100159.63;;;0.83;83.40
76132;BME280;64877;50.994;13.650;2022-12-20T01:59:39;100155.19;;;0.84;83.45
76132;BME280;64877;50.994;13.650;2022-12-20T02:02:08;100156.03;;;0.86;83.92
76132;BME280;64877;50.994;13.650;2022-12-20T02:04:34;100151.72;;;0.82;83.77
76132;BME280;64877;50.994;13.650;2022-12-20T02:07:02;100156.16;;;0.81;83.64
76132;BME280;64877;50.994;13.650;2022-12-20T02:09:29;100162.28;;;0.85;83.21
76132;BME280;64877;50.994;13.650;2022-12-20T02:14:45;100160.41;;;0.87;83.90
76132;BME280;64877;50.994;13.650;2022-12-20T02:25:40;100148.88;;;0.88;83.53
76132;BME280;64877;50.994;13.650;2022-12-20T02:28:17;100150.75;;;0.84;84.15
76132;BME280;64877;50.994;13.650;2022-12-20T02:30:46;100158.50;;;0.92;83.87
76132;BME280;64877;50.994;13.650;2022-12-20T02:33:13;100165.47;;;0.96;84.39
76132;BME280;64877;50.994;13.650;2022-12-20T02:35:40;100152.25;;;0.93;84.75
76132;BME280;64877;50.994;13.650;2022-12-20T02:38:29;100148.59;;;0.97;84.38
76132;BME280;64877;50.994;13.650;2022-12-20T02:41:05;100161.88;;;0.97;84.16
76132;BME280;64877;50.994;13.650;2022-12-20T02:43:33;100151.25;;;0.97;84.43
76132;BME280;64877;50.994;13.650;2022-12-20T02:46:20;100155.75;;;0.95;84.24
76132;BME280;64877;50.994;13.650;2022-12-20T02:48:48;100156.50;;;1.00;84.05
76132;BME280;64877;50.994;13.650;2022-12-20T02:51:17;100152.78;;;1.04;83.68
76132;BME280;64877;50.994;13.650;2022-12-20T02:53:45;100149.31;;;1.02;83.83
76132;BME280;64877;50.994;13.650;2022-12-20T02:56:21;100156.38;;;1.03;84.17
76132;BME280;64877;50.994;13.650;2022-12-20T03:01:23;100150.13;;;1.04;85.31
76132;BME280;64877;50.994;13.650;2022-12-20T03:03:51;100148.44;;;1.01;84.68
76132;BME280;64877;50.994;13.650;2022-12-20T03:06:17;100138.75;;;1.00;85.31
76132;BME280;64877;50.994;13.650;2022-12-20T03:08:42;100145.88;;;0.98;85.33
76132;BME280;64877;50.994;13.650;2022-12-20T03:11:07;100135.22;;;1.00;85.54
76132;BME280;64877;50.994;13.650;2022-12-20T03:13:33;100133.28;;;1.05;85.15
76132;BME280;64877;50.994;13.650;2022-12-20T03:15:58;100127.97;;;1.05;85.25
76132;BME280;64877;50.994;13.650;2022-12-20T03:18:24;100123.78;;;0.96;85.21
76132;BME280;64877;50.994;13.650;2022-12-20T03:20:49;100136.09;;;0.99;85.37
76132;BME280;64877;50.994;13.650;2022-12-20T03:23:14;100131.72;;;0.98;85.92
76132;BME280;64877;50.994;13.650;2022-12-20T03:25:40;100117.31;;;1.05;85.81
76132;BME280;64877;50.994;13.650;2022-12-20T03:28:05;100128.84;;;1.06;85.57
76132;BME280;64877;50.994;13.650;2022-12-20T03:30:31;100123.69;;;0.99;85.65
76132;BME280;64877;50.994;13.650;2022-12-20T03:32:56;100136.84;;;1.04;86.33
76132;BME280;64877;50.994;13.650;2022-12-20T03:35:21;100121.00;;;1.01;85.45
76132;BME280;64877;50.994;13.650;2022-12-20T03:37:47;100125.38;;;1.02;85.25
76132;BME280;64877;50.994;13.650;2022-12-20T03:40:12;100122.59;;;1.07;85.56
76132;BME280;64877;50.994;13.650;2022-12-20T03:42:38;100111.16;;;1.03;85.49
76132;BME280;64877;50.994;13.650;2022-12-20T03:45:04;100113.75;;;1.06;86.08
76132;BME280;64877;50.994;13.650;2022-12-20T03:47:30;100120.72;;;1.10;85.19
76132;BME280;64877;50.994;13.650;2022-12-20T03:49:55;100122.53;;;1.08;85.84
76132;BME280;64877;50.994;13.650;2022-12-20T03:52:21;100125.16;;;1.10;85.95
76132;BME280;64877;50.994;13.650;2022-12-20T03:54:47;100127.75;;;1.11;85.78
76132;BME280;64877;50.994;13.650;2022-12-20T03:57:12;100133.91;;;1.13;85.63
76132;BME280;64877;50.994;13.650;2022-12-20T03:59:37;100116.06;;;1.17;85.51
76132;BME280;64877;50.994;13.650;2022-12-20T04:02:03;100114.25;;;1.17;85.40
76132;BME280;64877;50.994;13.650;2022-12-20T04:04:28;100118.78;;;1.15;85.19
76132;BME280;64877;50.994;13.650;2022-12-20T04:06:55;100117.00;;;1.14;85.58
76132;BME280;64877;50.994;13.650;2022-12-20T04:09:20;100119.66;;;1.16;85.63
76132;BME280;64877;50.994;13.650;2022-12-20T04:11:45;100120.50;;;1.16;85.70
76132;BME280;64877;50.994;13.650;2022-12-20T04:14:11;100127.56;;;1.17;85.12
76132;BME280;64877;50.994;13.650;2022-12-20T04:16:37;100111.53;;;1.20;85.46
76132;BME280;64877;50.994;13.650;2022-12-20T04:19:02;100120.41;;;1.19;85.68
76132;BME280;64877;50.994;13.650;2022-12-20T04:21:31;100116.06;;;1.17;85.95
76132;BME280;64877;50.994;13.650;2022-12-20T04:23:57;100115.97;;;1.20;86.22
76132;BME280;64877;50.994;13.650;2022-12-20T04:26:24;100115.91;;;1.21;85.88
76132;BME280;64877;50.994;13.650;2022-12-20T04:28:49;100100.75;;;1.23;85.96
76132;BME280;64877;50.994;13.650;2022-12-20T04:31:15;100110.34;;;1.29;85.81
76132;BME280;64877;50.994;13.650;2022-12-20T04:33:40;100109.47;;;1.28;85.89
76132;BME280;64877;50.994;13.650;2022-12-20T04:36:06;100107.09;;;1.19;85.83
76132;BME280;64877;50.994;13.650;2022-12-20T04:38:31;100108.94;;;1.17;86.24
76132;BME280;64877;50.994;13.650;2022-12-20T04:40:57;100107.94;;;1.21;86.49
76132;BME280;64877;50.994;13.650;2022-12-20T04:43:23;100103.28;;;1.28;86.44
76132;BME280;64877;50.994;13.650;2022-12-20T04:45:52;100108.38;;;1.34;86.83
76132;BME280;64877;50.994;13.650;2022-12-20T04:48:21;100114.63;;;1.35;86.88
76132;BME280;64877;50.994;13.650;2022-12-20T04:50:49;100106.66;;;1.33;86.82
76132;BME280;64877;50.994;13.650;2022-12-20T04:53:14;100107.53;;;1.34;86.47
76132;BME280;64877;50.994;13.650;2022-12-20T04:55:59;100099.50;;;1.35;86.82
76132;BME280;64877;50.994;13.650;2022-12-20T04:58:25;100095.06;;;1.36;86.87
76132;BME280;64877;50.994;13.650;2022-12-20T05:00:50;100096.78;;;1.37;86.91
76132;BME280;64877;50.994;13.650;2022-12-20T05:03:20;100088.09;;;1.32;86.88
76132;BME280;64877;50.994;13.650;2022-12-20T05:05:45;100089.81;;;1.33;86.90
76132;BME280;64877;50.994;13.650;2022-12-20T05:08:11;100091.41;;;1.38;87.33
76132;BME280;64877;50.994;13.650;2022-12-20T05:10:36;100087.00;;;1.37;86.71
76132;BME280;64877;50.994;13.650;2022-12-20T05:13:02;100092.28;;;1.39;87.55
76132;BME280;64877;50.994;13.650;2022-12-20T05:15:27;100091.25;;;1.43;86.79
76132;BME280;64877;50.994;13.650;2022-12-20T05:17:53;100091.47;;;1.37;87.30
76132;BME280;64877;50.994;13.650;2022-12-20T05:20:27;100085.16;;;1.39;86.96
76132;BME280;64877;50.994;13.650;2022-12-20T05:22:53;100085.00;;;1.44;87.51
76132;BME280;64877;50.994;13.650;2022-12-20T05:25:39;100085.00;;;1.44;87.47
76132;BME280;64877;50.994;13.650;2022-12-20T05:28:34;100077.03;;;1.44;87.27
76132;BME280;64877;50.994;13.650;2022-12-20T05:31:00;100074.28;;;1.47;87.25
76132;BME280;64877;50.994;13.650;2022-12-20T05:33:26;100076.84;;;1.50;86.92
76132;BME280;64877;50.994;13.650;2022-12-20T05:35:52;100068.97;;;1.47;87.15
76132;BME280;64877;50.994;13.650;2022-12-20T05:38:17;100066.19;;;1.50;87.48
76132;BME280;64877;50.994;13.650;2022-12-20T05:40:46;100057.22;;;1.52;87.20
76132;BME280;64877;50.994;13.650;2022-12-20T05:43:13;100054.00;;;1.43;86.65
76132;BME280;64877;50.994;13.650;2022-12-20T05:45:38;100067.28;;;1.44;87.39
76132;BME280;64877;50.994;13.650;2022-12-20T05:48:03;100061.84;;;1.47;87.31
76132;BME280;64877;50.994;13.650;2022-12-20T05:50:29;100062.50;;;1.54;87.37
76132;BME280;64877;50.994;13.650;2022-12-20T05:52:54;100054.56;;;1.52;86.81
76132;BME280;64877;50.994;13.650;2022-12-20T05:55:20;100053.63;;;1.53;87.00
76132;BME280;64877;50.994;13.650;2022-12-20T05:57:45;100055.41;;;1.54;87.68
76132;BME280;64877;50.994;13.650;2022-12-20T06:00:11;100050.88;;;1.57;87.29
76132;BME280;64877;50.994;13.650;2022-12-20T06:02:37;100054.56;;;1.52;87.09
76132;BME280;64877;50.994;13.650;2022-12-20T06:05:03;100050.88;;;1.57;87.53
76132;BME280;64877;50.994;13.650;2022-12-20T06:07:28;100045.56;;;1.57;87.63
76132;BME280;64877;50.994;13.650;2022-12-20T06:09:55;100042.84;;;1.58;87.41
76132;BME280;64877;50.994;13.650;2022-12-20T06:12:20;100032.31;;;1.55;87.90
76132;BME280;64877;50.994;13.650;2022-12-20T06:14:45;100034.84;;;1.58;87.67
76132;BME280;64877;50.994;13.650;2022-12-20T06:17:11;100036.78;;;1.54;88.10
76132;BME280;64877;50.994;13.650;2022-12-20T06:19:36;100036.59;;;1.59;88.05
76132;BME280;64877;50.994;13.650;2022-12-20T06:22:04;100049.78;;;1.62;87.54
76132;BME280;64877;50.994;13.650;2022-12-20T06:24:29;100053.38;;;1.61;87.13
76132;BME280;64877;50.994;13.650;2022-12-20T06:26:54;100055.03;;;1.65;87.85
76132;BME280;64877;50.994;13.650;2022-12-20T06:29:20;100055.13;;;1.62;87.30
76132;BME280;64877;50.994;13.650;2022-12-20T06:31:48;100049.69;;;1.65;87.22
76132;BME280;64877;50.994;13.650;2022-12-20T06:34:13;100049.69;;;1.65;87.23
76132;BME280;64877;50.994;13.650;2022-12-20T06:36:40;100049.78;;;1.62;87.95
76132;BME280;64877;50.994;13.650;2022-12-20T06:39:05;100052.53;;;1.61;87.17
76132;BME280;64877;50.994;13.650;2022-12-20T06:41:32;100042.66;;;1.64;87.04
76132;BME280;64877;50.994;13.650;2022-12-20T06:43:58;100047.91;;;1.66;87.90
76132;BME280;64877;50.994;13.650;2022-12-20T06:46:23;100054.09;;;1.66;87.71
76132;BME280;64877;50.994;13.650;2022-12-20T06:48:48;100060.34;;;1.65;87.77
76132;BME280;64877;50.994;13.650;2022-12-20T06:51:14;100059.50;;;1.63;87.46
76132;BME280;64877;50.994;13.650;2022-12-20T06:53:41;100067.50;;;1.63;87.67
76132;BME280;64877;50.994;13.650;2022-12-20T06:56:07;100067.41;;;1.66;87.24
76132;BME280;64877;50.994;13.650;2022-12-20T06:58:32;100069.97;;;1.69;87.13
76132;BME280;64877;50.994;13.650;2022-12-20T07:00:57;100060.34;;;1.65;87.67
76132;BME280;64877;50.994;13.650;2022-12-20T07:03:23;100063.75;;;1.69;87.36
76132;BME280;64877;50.994;13.650;2022-12-20T07:05:52;100065.53;;;1.68;87.85
76132;BME280;64877;50.994;13.650;2022-12-20T07:08:19;100063.94;;;1.64;88.20
76132;BME280;64877;50.994;13.650;2022-12-20T07:10:44;100063.00;;;1.65;88.43
76132;BME280;64877;50.994;13.650;2022-12-20T07:13:10;100073.44;;;1.71;88.06
76132;BME280;64877;50.994;13.650;2022-12-20T07:15:35;100064.44;;;1.75;87.86
76132;BME280;64877;50.994;13.650;2022-12-20T07:18:01;100060.78;;;1.78;87.33
76132;BME280;64877;50.994;13.650;2022-12-20T07:20:27;100046.59;;;1.77;87.05
76132;BME280;64877;50.994;13.650;2022-12-20T07:22:52;100046.75;;;1.73;87.68
76132;BME280;64877;50.994;13.650;2022-12-20T07:25:18;100045.88;;;1.72;87.20
76132;BME280;64877;50.994;13.650;2022-12-20T07:27:48;100046.66;;;1.76;87.77
76132;BME280;64877;50.994;13.650;2022-12-20T07:30:18;100051.00;;;1.78;87.38
76132;BME280;64877;50.994;13.650;2022-12-20T07:32:43;100043.94;;;1.77;87.22
76132;BME280;64877;50.994;13.650;2022-12-20T07:35:10;100046.53;;;1.79;87.48
76132;BME280;64877;50.994;13.650;2022-12-20T07:37:35;100042.19;;;1.76;88.23
76132;BME280;64877;50.994;13.650;2022-12-20T07:40:01;100045.47;;;1.85;87.55
76132;BME280;64877;50.994;13.650;2022-12-20T07:42:26;100040.16;;;1.85;87.56
76132;BME280;64877;50.994;13.650;2022-12-20T07:44:52;100022.22;;;1.90;86.84
76132;BME280;64877;50.994;13.650;2022-12-20T07:47:17;100030.13;;;1.91;87.58
76132;BME280;64877;50.994;13.650;2022-12-20T07:49:42;100043.28;;;1.96;87.54
76132;BME280;64877;50.994;13.650;2022-12-20T07:52:09;100045.81;;;1.99;87.71
76132;BME280;64877;50.994;13.650;2022-12-20T07:54:41;100042.13;;;2.03;87.05
76132;BME280;64877;50.994;13.650;2022-12-20T07:57:14;100033.97;;;2.07;86.30
76132;BME280;64877;50.994;13.650;2022-12-20T07:59:45;100039.25;;;2.09;85.33
76132;BME280;64877;50.994;13.650;2022-12-20T08:02:15;100052.56;;;2.09;86.66
76132;BME280;64877;50.994;13.650;2022-12-20T08:04:42;100059.72;;;2.07;86.33
76132;BME280;64877;50.994;13.650;2022-12-20T08:07:08;100053.59;;;2.05;85.75
76132;BME280;64877;50.994;13.650;2022-12-20T08:09:37;100051.88;;;2.04;85.33
76132;BME280;64877;50.994;13.650;2022-12-20T08:12:04;100058.81;;;2.08;86.22
76132;BME280;64877;50.994;13.650;2022-12-20T08:14:30;100055.44;;;2.03;85.72
76132;BME280;64877;50.994;13.650;2022-12-20T08:16:55;100055.44;;;2.03;85.84
76132;BME280;64877;50.994;13.650;2022-12-20T08:19:21;100054.41;;;2.07;85.44
76132;BME280;64877;50.994;13.650;2022-12-20T08:21:46;100054.41;;;2.07;85.36
76132;BME280;64877;50.994;13.650;2022-12-20T08:24:12;100051.41;;;2.16;84.95
76132;BME280;64877;50.994;13.650;2022-12-20T08:26:39;100055.94;;;2.38;82.64
76132;BME280;64877;50.994;13.650;2022-12-20T08:29:04;100046.06;;;2.63;79.76
76132;BME280;64877;50.994;13.650;2022-12-20T08:31:30;100040.72;;;2.63;78.61
76132;BME280;64877;50.994;13.650;2022-12-20T08:33:55;100055.41;;;2.75;78.48
76132;BME280;64877;50.994;13.650;2022-12-20T08:36:21;100047.00;;;2.62;78.27
76132;BME280;64877;50.994;13.650;2022-12-20T08:38:46;100063.94;;;2.61;78.47
76132;BME280;64877;50.994;13.650;2022-12-20T08:41:13;100048.44;;;2.71;77.53
76132;BME280;64877;50.994;13.650;2022-12-20T08:43:39;100051.28;;;2.66;77.61
76132;BME280;64877;50.994;13.650;2022-12-20T08:46:06;100032.03;;;2.58;76.89
76132;BME280;64877;50.994;13.650;2022-12-20T08:48:32;100043.97;;;2.71;76.17
76132;BME280;64877;50.994;13.650;2022-12-20T08:51:00;100042.59;;;2.61;76.52
76132;BME280;64877;50.994;13.650;2022-12-20T08:53:27;100043.56;;;2.58;77.01
76132;BME280;64877;50.994;13.650;2022-12-20T08:55:52;100040.97;;;2.57;77.19
76132;BME280;64877;50.994;13.650;2022-12-20T08:58:19;100037.38;;;2.58;77.66
76132;BME280;64877;50.994;13.650;2022-12-20T09:00:44;100044.22;;;2.65;76.98
76132;BME280;64877;50.994;13.650;2022-12-20T09:03:11;100043.63;;;2.80;76.61
76132;BME280;64877;50.994;13.650;2022-12-20T09:05:47;100033.81;;;2.81;76.02
76132;BME280;64877;50.994;13.650;2022-12-20T09:08:14;100040.69;;;2.87;75.79
76132;BME280;64877;50.994;13.650;2022-12-20T09:10:39;100042.59;;;2.83;75.53
76132;BME280;64877;50.994;13.650;2022-12-20T09:13:05;100045.97;;;2.88;75.44
76132;BME280;64877;50.994;13.650;2022-12-20T09:15:33;100054.41;;;2.77;76.48
76132;BME280;64877;50.994;13.650;2022-12-20T09:17:58;100056.78;;;2.85;76.70
76132;BME280;64877;50.994;13.650;2022-12-20T09:20:24;100055.91;;;2.84;78.24
76132;BME280;64877;50.994;13.650;2022-12-20T09:22:49;100052.31;;;2.85;78.83
76132;BME280;64877;50.994;13.650;2022-12-20T09:25:15;100053.06;;;2.89;79.24
76132;BME280;64877;50.994;13.650;2022-12-20T09:27:40;100074.00;;;2.98;77.94
76132;BME280;64877;50.994;13.650;2022-12-20T09:30:06;100060.38;;;3.06;75.98
76132;BME280;64877;50.994;13.650;2022-12-20T09:32:32;100059.19;;;3.13;74.59
76132;BME280;64877;50.994;13.650;2022-12-20T09:34:57;100057.16;;;3.20;74.49
76132;BME280;64877;50.994;13.650;2022-12-20T09:37:22;100059.38;;;3.30;73.63
76132;BME280;64877;50.994;13.650;2022-12-20T09:39:48;100053.91;;;3.11;74.06
76132;BME280;64877;50.994;13.650;2022-12-20T09:42:18;100058.88;;;3.21;73.90
76132;BME280;64877;50.994;13.650;2022-12-20T09:44:47;100061.47;;;3.22;73.39
76132;BME280;64877;50.994;13.650;2022-12-20T09:47:22;100061.72;;;3.16;74.01
76132;BME280;64877;50.994;13.650;2022-12-20T09:49:54;100073.59;;;3.09;74.04
76132;BME280;64877;50.994;13.650;2022-12-20T09:55:16;100073.47;;;3.12;73.34
76132;BME280;64877;50.994;13.650;2022-12-20T09:57:57;100059.50;;;3.05;73.76
76132;BME280;64877;50.994;13.650;2022-12-20T10:00:28;100066.84;;;3.00;73.83
76132;BME280;64877;50.994;13.650;2022-12-20T10:02:54;100059.00;;;2.96;74.55
76132;BME280;64877;50.994;13.650;2022-12-20T10:10:53;100077.25;;;2.84;74.65
76132;BME280;64877;50.994;13.650;2022-12-20T10:16:18;100078.09;;;2.85;74.11
76132;BME280;64877;50.994;13.650;2022-12-20T10:24:01;100062.41;;;2.77;74.29
76132;BME280;64877;50.994;13.650;2022-12-20T10:26:28;100058.75;;;2.80;74.30
76132;BME280;64877;50.994;13.650;2022-12-20T10:28:54;100067.91;;;2.73;73.87
76132;BME280;64877;50.994;13.650;2022-12-20T10:31:20;100072.69;;;2.65;74.05
76132;BME280;64877;50.994;13.650;2022-12-20T10:33:45;100068.28;;;2.64;74.34
76132;BME280;64877;50.994;13.650;2022-12-20T10:36:24;100056.69;;;2.65;74.07
76132;BME280;64877;50.994;13.650;2022-12-20T10:38:59;100054.88;;;2.65;73.73
76132;BME280;64877;50.994;13.650;2022-12-20T10:41:47;100053.38;;;2.58;74.60
76132;BME280;64877;50.994;13.650;2022-12-20T10:44:25;100047.69;;;2.67;74.06
76132;BME280;64877;50.994;13.650;2022-12-20T10:46:55;100040.78;;;2.62;74.43
76132;BME280;64877;50.994;13.650;2022-12-20T10:49:24;100032.88;;;2.60;73.99
76132;BME280;64877;50.994;13.650;2022-12-20T10:51:53;100013.63;;;2.52;74.79
76132;BME280;64877;50.994;13.650;2022-12-20T10:54:39;100017.31;;;2.49;74.79
76132;BME280;64877;50.994;13.650;2022-12-20T10:57:20;100024.63;;;2.43;74.45
76132;BME280;64877;50.994;13.650;2022-12-20T11:00:01;100027.31;;;2.43;74.95
76132;BME280;64877;50.994;13.650;2022-12-20T11:02:35;100013.09;;;2.44;74.86
76132;BME280;64877;50.994;13.650;2022-12-20T11:07:36;100012.00;;;2.48;74.16
76132;BME280;64877;50.994;13.650;2022-12-20T11:10:17;99989.56;;;2.53;74.25
76132;BME280;64877;50.994;13.650;2022-12-20T11:12:57;99988.78;;;2.51;74.17
76132;BME280;64877;50.994;13.650;2022-12-20T11:15:30;99976.50;;;2.47;74.99
76132;BME280;64877;50.994;13.650;2022-12-20T11:18:02;99970.72;;;2.58;74.10
76132;BME280;64877;50.994;13.650;2022-12-20T11:20:37;99956.00;;;2.71;73.93
76132;BME280;64877;50.994;13.650;2022-12-20T11:31:39;99969.06;;;2.77;73.11
76132;BME280;64877;50.994;13.650;2022-12-20T11:44:56;99949.34;;;2.81;72.69
76132;BME280;64877;50.994;13.650;2022-12-20T11:53:00;99947.25;;;2.90;72.78
76132;BME280;64877;50.994;13.650;2022-12-20T11:55:28;99950.97;;;2.85;73.43
76132;BME280;64877;50.994;13.650;2022-12-20T11:58:22;99933.09;;;2.88;73.63
76132;BME280;64877;50.994;13.650;2022-12-20T12:01:08;99936.19;;;2.99;73.13
76132;BME280;64877;50.994;13.650;2022-12-20T12:03:39;99935.44;;;2.95;72.98
76132;BME280;64877;50.994;13.650;2022-12-20T12:06:16;99947.75;;;2.98;72.30
76132;BME280;64877;50.994;13.650;2022-12-20T12:11:40;99924.25;;;3.07;71.87
76132;BME280;64877;50.994;13.650;2022-12-20T12:14:27;99921.91;;;3.00;72.50
76132;BME280;64877;50.994;13.650;2022-12-20T12:16:57;99920.84;;;3.04;71.52
76132;BME280;64877;50.994;13.650;2022-12-20T12:19:25;99912.19;;;2.99;72.38
76132;BME280;64877;50.994;13.650;2022-12-20T12:21:57;99906.50;;;3.06;71.75
76132;BME280;64877;50.994;13.650;2022-12-20T12:24:34;99897.22;;;2.95;71.77
76132;BME280;64877;50.994;13.650;2022-12-20T12:27:03;99896.41;;;2.93;72.86
76132;BME280;64877;50.994;13.650;2022-12-20T12:29:32;99880.94;;;2.80;73.18
76132;BME280;64877;50.994;13.650;2022-12-20T12:32:07;99870.59;;;2.93;73.29
76132;BME280;64877;50.994;13.650;2022-12-20T12:45:21;99868.16;;;3.09;71.79
76132;BME280;64877;50.994;13.650;2022-12-20T12:47:53;99857.34;;;3.12;71.95
76132;BME280;64877;50.994;13.650;2022-12-20T12:50:29;99855.75;;;3.08;71.85
76132;BME280;64877;50.994;13.650;2022-12-20T12:53:06;99839.72;;;3.08;72.36
76132;BME280;64877;50.994;13.650;2022-12-20T12:55:39;99852.00;;;3.12;72.59
76132;BME280;64877;50.994;13.650;2022-12-20T13:03:15;99848.16;;;3.19;72.53
76132;BME280;64877;50.994;13.650;2022-12-20T13:05:41;99841.75;;;3.23;71.96
76132;BME280;64877;50.994;13.650;2022-12-20T13:08:16;99850.94;;;3.16;72.19
76132;BME280;64877;50.994;13.650;2022-12-20T13:10:54;99846.94;;;3.26;71.81
76132;BME280;64877;50.994;13.650;2022-12-20T13:13:21;99843.00;;;3.15;71.20
76132;BME280;64877;50.994;13.650;2022-12-20T13:15:51;99841.63;;;3.06;71.64
76132;BME280;64877;50.994;13.650;2022-12-20T13:18:28;99844.28;;;3.06;72.39
76132;BME280;64877;50.994;13.650;2022-12-20T13:21:31;99828.41;;;3.03;71.94
76132;BME280;64877;50.994;13.650;2022-12-20T13:25:26;99821.72;;;2.93;72.72
76132;BME280;64877;50.994;13.650;2022-12-20T13:40:47;99799.94;;;3.03;73.19
76132;BME280;64877;50.994;13.650;2022-12-20T13:43:24;99787.19;;;3.10;73.21
76132;BME280;64877;50.994;13.650;2022-12-20T13:45:56;99792.31;;;3.15;73.13
76132;BME280;64877;50.994;13.650;2022-12-20T13:48:52;99770.81;;;3.18;72.91
76132;BME280;64877;50.994;13.650;2022-12-20T13:51:24;99777.53;;;3.26;72.68
76132;BME280;64877;50.994;13.650;2022-12-20T13:59:02;99758.88;;;3.26;71.94
76132;BME280;64877;50.994;13.650;2022-12-20T14:01:28;99782.53;;;3.34;72.33
76132;BME280;64877;50.994;13.650;2022-12-20T14:03:55;99783.63;;;3.30;72.08
76132;BME280;64877;50.994;13.650;2022-12-20T14:06:22;99768.22;;;3.16;73.41
76132;BME280;64877;50.994;13.650;2022-12-20T14:08:50;99763.03;;;3.13;73.89
76132;BME280;64877;50.994;13.650;2022-12-20T14:11:22;99773.78;;;3.11;74.42
76132;BME280;64877;50.994;13.650;2022-12-20T14:13:56;99779.09;;;3.11;74.11
76132;BME280;64877;50.994;13.650;2022-12-20T14:16:24;99779.19;;;3.10;74.79
76132;BME280;64877;50.994;13.650;2022-12-20T14:21:24;99763.47;;;3.04;74.61
76132;BME280;64877;50.994;13.650;2022-12-20T14:23:52;99763.72;;;2.98;74.52
76132;BME280;64877;50.994;13.650;2022-12-20T14:26:32;99762.28;;;2.91;74.96
76132;BME280;64877;50.994;13.650;2022-12-20T14:29:00;99754.56;;;2.84;74.36
76132;BME280;64877;50.994;13.650;2022-12-20T14:34:01;99775.06;;;2.82;74.67
76132;BME280;64877;50.994;13.650;2022-12-20T14:36:27;99762.47;;;2.86;74.36
76132;BME280;64877;50.994;13.650;2022-12-20T14:38:54;99762.38;;;2.69;74.91
76132;BME280;64877;50.994;13.650;2022-12-20T14:41:42;99751.03;;;2.64;75.19
76132;BME280;64877;50.994;13.650;2022-12-20T14:44:20;99747.81;;;2.76;74.89